sensor_id;sensor_type;location;lat;lon;timestamp;P1;durP1;ratioP1;P2;durP2;ratioP2
12224;SDS011;6175;50.956;11.064;2023-02-28T00:00:29;4.67;;;4.10;;
12224;SDS011;6175;50.956;11.064;2023-02-28T00:02:57;5.87;;;4.30;;
12224;SDS011;6175;50.956;11.064;2023-02-28T00:05:25;4.67;;;4.00;;
12224;SDS011;6175;50.956;11.064;2023-02-28T00:07:53;4.57;;;4.13;;
12224;SDS011;6175;50.956;11.064;2023-02-28T00:10:21;4.27;;;3.73;;
12224;SDS011;6175;50.956;11.064;2023-02-28T00:12:49;4.60;;;4.20;;
12224;SDS011;6175;50.956;11.064;2023-02-28T00:15:17;4.70;;;4.00;;
12224;SDS011;6175;50.956;11.064;2023-02-28T00:17:45;4.63;;;4.07;;
12224;SDS011;6175;50.956;11.064;2023-02-28T00:20:14;4.13;;;3.73;;
12224;SDS011;6175;50.956;11.064;2023-02-28T00:22:42;5.60;;;4.43;;
12224;SDS011;6175;50.956;11.064;2023-02-28T00:25:10;5.30;;;4.43;;
12224;SDS011;6175;50.956;11.064;2023-02-28T00:27:38;4.70;;;4.20;;
12224;SDS011;6175;50.956;11.064;2023-02-28T00:30:06;4.53;;;4.10;;
12224;SDS011;6175;50.956;11.064;2023-02-28T00:32:35;4.73;;;3.57;;
12224;SDS011;6175;50.956;11.064;2023-02-28T00:35:02;4.33;;;3.93;;
12224;SDS011;6175;50.956;11.064;2023-02-28T00:37:31;4.00;;;3.70;;
12224;SDS011;6175;50.956;11.064;2023-02-28T00:39:58;4.23;;;3.83;;
12224;SDS011;6175;50.956;11.064;2023-02-28T00:42:25;6.47;;;4.93;;
12224;SDS011;6175;50.956;11.064;2023-02-28T00:44:52;5.87;;;4.87;;
12224;SDS011;6175;50.956;11.064;2023-02-28T00:47:19;6.57;;;4.33;;
12224;SDS011;6175;50.956;11.064;2023-02-28T00:49:47;5.57;;;4.67;;
12224;SDS011;6175;50.956;11.064;2023-02-28T00:52:14;6.43;;;5.17;;
12224;SDS011;6175;50.956;11.064;2023-02-28T00:54:42;5.53;;;4.93;;
12224;SDS011;6175;50.956;11.064;2023-02-28T00:57:09;5.57;;;4.73;;
12224;SDS011;6175;50.956;11.064;2023-02-28T00:59:36;5.80;;;5.20;;
12224;SDS011;6175;50.956;11.064;2023-02-28T01:02:03;5.87;;;5.27;;
12224;SDS011;6175;50.956;11.064;2023-02-28T01:04:31;6.37;;;4.87;;
12224;SDS011;6175;50.956;11.064;2023-02-28T01:06:58;5.33;;;4.83;;
12224;SDS011;6175;50.956;11.064;2023-02-28T01:09:25;6.17;;;5.57;;
12224;SDS011;6175;50.956;11.064;2023-02-28T01:11:53;5.90;;;4.97;;
12224;SDS011;6175;50.956;11.064;2023-02-28T01:14:22;5.60;;;5.10;;
12224;SDS011;6175;50.956;11.064;2023-02-28T01:16:49;5.53;;;4.83;;
12224;SDS011;6175;50.956;11.064;2023-02-28T01:19:16;6.43;;;5.53;;
12224;SDS011;6175;50.956;11.064;2023-02-28T01:21:43;5.50;;;4.87;;
12224;SDS011;6175;50.956;11.064;2023-02-28T01:24:10;8.30;;;6.10;;
12224;SDS011;6175;50.956;11.064;2023-02-28T01:26:37;16.37;;;10.57;;
12224;SDS011;6175;50.956;11.064;2023-02-28T01:29:06;12.33;;;8.60;;
12224;SDS011;6175;50.956;11.064;2023-02-28T01:31:32;10.13;;;7.10;;
12224;SDS011;6175;50.956;11.064;2023-02-28T01:34:00;8.90;;;7.27;;
12224;SDS011;6175;50.956;11.064;2023-02-28T01:36:27;10.40;;;8.17;;
12224;SDS011;6175;50.956;11.064;2023-02-28T01:38:54;14.03;;;8.93;;
12224;SDS011;6175;50.956;11.064;2023-02-28T01:41:22;15.27;;;10.13;;
12224;SDS011;6175;50.956;11.064;2023-02-28T01:44:01;12.90;;;8.53;;
12224;SDS011;6175;50.956;11.064;2023-02-28T01:46:31;34.30;;;17.67;;
12224;SDS011;6175;50.956;11.064;2023-02-28T01:49:00;34.87;;;17.47;;
12224;SDS011;6175;50.956;11.064;2023-02-28T01:51:31;26.13;;;14.63;;
12224;SDS011;6175;50.956;11.064;2023-02-28T01:54:02;16.33;;;9.33;;
12224;SDS011;6175;50.956;11.064;2023-02-28T01:56:38;13.60;;;9.53;;
12224;SDS011;6175;50.956;11.064;2023-02-28T01:59:10;12.23;;;8.20;;
12224;SDS011;6175;50.956;11.064;2023-02-28T02:01:42;9.27;;;7.17;;
12224;SDS011;6175;50.956;11.064;2023-02-28T02:04:09;8.60;;;7.10;;
12224;SDS011;6175;50.956;11.064;2023-02-28T02:06:37;8.90;;;6.97;;
12224;SDS011;6175;50.956;11.064;2023-02-28T02:09:06;9.63;;;6.63;;
12224;SDS011;6175;50.956;11.064;2023-02-28T02:11:34;8.80;;;7.63;;
12224;SDS011;6175;50.956;11.064;2023-02-28T02:14:10;11.10;;;7.60;;
12224;SDS011;6175;50.956;11.064;2023-02-28T02:16:58;8.37;;;7.43;;
12224;SDS011;6175;50.956;11.064;2023-02-28T02:22:49;8.90;;;7.07;;
12224;SDS011;6175;50.956;11.064;2023-02-28T02:25:33;8.07;;;6.00;;
12224;SDS011;6175;50.956;11.064;2023-02-28T02:31:23;6.33;;;5.73;;
12224;SDS011;6175;50.956;11.064;2023-02-28T02:34:13;6.87;;;6.17;;
12224;SDS011;6175;50.956;11.064;2023-02-28T02:37:00;7.97;;;5.97;;
12224;SDS011;6175;50.956;11.064;2023-02-28T02:39:36;7.93;;;6.70;;
12224;SDS011;6175;50.956;11.064;2023-02-28T02:42:11;6.77;;;5.77;;
12224;SDS011;6175;50.956;11.064;2023-02-28T02:44:42;6.43;;;5.53;;
12224;SDS011;6175;50.956;11.064;2023-02-28T02:47:13;6.60;;;5.67;;
12224;SDS011;6175;50.956;11.064;2023-02-28T02:49:45;5.90;;;5.17;;
12224;SDS011;6175;50.956;11.064;2023-02-28T02:52:15;8.13;;;6.03;;
12224;SDS011;6175;50.956;11.064;2023-02-28T02:54:46;6.07;;;5.47;;
12224;SDS011;6175;50.956;11.064;2023-02-28T02:57:19;6.37;;;5.27;;
12224;SDS011;6175;50.956;11.064;2023-02-28T02:59:50;6.80;;;5.67;;
12224;SDS011;6175;50.956;11.064;2023-02-28T03:02:20;7.83;;;6.40;;
12224;SDS011;6175;50.956;11.064;2023-02-28T03:04:52;6.63;;;5.83;;
12224;SDS011;6175;50.956;11.064;2023-02-28T03:07:26;5.90;;;5.27;;
12224;SDS011;6175;50.956;11.064;2023-02-28T03:09:53;6.10;;;5.40;;
12224;SDS011;6175;50.956;11.064;2023-02-28T03:12:22;6.30;;;5.70;;
12224;SDS011;6175;50.956;11.064;2023-02-28T03:14:53;6.13;;;5.53;;
12224;SDS011;6175;50.956;11.064;2023-02-28T03:20:17;6.57;;;5.87;;
12224;SDS011;6175;50.956;11.064;2023-02-28T03:22:57;6.40;;;5.80;;
12224;SDS011;6175;50.956;11.064;2023-02-28T03:25:32;6.97;;;4.47;;
12224;SDS011;6175;50.956;11.064;2023-02-28T03:28:08;5.03;;;4.50;;
12224;SDS011;6175;50.956;11.064;2023-02-28T03:30:42;5.17;;;4.67;;
12224;SDS011;6175;50.956;11.064;2023-02-28T03:33:19;4.47;;;4.07;;
12224;SDS011;6175;50.956;11.064;2023-02-28T03:35:51;5.07;;;3.97;;
12224;SDS011;6175;50.956;11.064;2023-02-28T03:38:22;4.90;;;3.77;;
12224;SDS011;6175;50.956;11.064;2023-02-28T03:40:55;4.17;;;3.77;;
12224;SDS011;6175;50.956;11.064;2023-02-28T03:43:28;4.80;;;4.10;;
12224;SDS011;6175;50.956;11.064;2023-02-28T03:45:58;4.70;;;4.30;;
12224;SDS011;6175;50.956;11.064;2023-02-28T03:48:30;4.77;;;4.30;;
12224;SDS011;6175;50.956;11.064;2023-02-28T03:51:03;4.57;;;4.00;;
12224;SDS011;6175;50.956;11.064;2023-02-28T03:53:34;5.50;;;3.80;;
12224;SDS011;6175;50.956;11.064;2023-02-28T03:56:05;5.63;;;3.80;;
12224;SDS011;6175;50.956;11.064;2023-02-28T03:58:39;4.60;;;4.03;;
12224;SDS011;6175;50.956;11.064;2023-02-28T04:01:14;4.80;;;4.17;;
12224;SDS011;6175;50.956;11.064;2023-02-28T04:03:45;4.07;;;3.67;;
12224;SDS011;6175;50.956;11.064;2023-02-28T04:06:15;5.43;;;4.20;;
12224;SDS011;6175;50.956;11.064;2023-02-28T04:08:44;4.47;;;4.07;;
12224;SDS011;6175;50.956;11.064;2023-02-28T04:11:14;6.67;;;4.17;;
12224;SDS011;6175;50.956;11.064;2023-02-28T04:13:46;4.53;;;4.00;;
12224;SDS011;6175;50.956;11.064;2023-02-28T04:16:13;3.83;;;3.53;;
12224;SDS011;6175;50.956;11.064;2023-02-28T04:18:40;4.57;;;4.10;;
12224;SDS011;6175;50.956;11.064;2023-02-28T04:21:08;4.03;;;3.63;;
12224;SDS011;6175;50.956;11.064;2023-02-28T04:23:37;4.67;;;4.17;;
12224;SDS011;6175;50.956;11.064;2023-02-28T04:26:04;4.10;;;3.80;;
12224;SDS011;6175;50.956;11.064;2023-02-28T04:28:31;5.47;;;4.13;;
12224;SDS011;6175;50.956;11.064;2023-02-28T04:30:59;5.83;;;4.50;;
12224;SDS011;6175;50.956;11.064;2023-02-28T04:33:28;4.23;;;3.80;;
12224;SDS011;6175;50.956;11.064;2023-02-28T04:35:59;4.57;;;3.90;;
12224;SDS011;6175;50.956;11.064;2023-02-28T04:38:26;4.67;;;3.93;;
12224;SDS011;6175;50.956;11.064;2023-02-28T04:40:56;4.03;;;3.63;;
12224;SDS011;6175;50.956;11.064;2023-02-28T04:43:23;3.63;;;3.30;;
12224;SDS011;6175;50.956;11.064;2023-02-28T04:45:50;5.13;;;4.23;;
12224;SDS011;6175;50.956;11.064;2023-02-28T04:48:17;6.73;;;4.93;;
12224;SDS011;6175;50.956;11.064;2023-02-28T04:50:44;5.47;;;4.70;;
12224;SDS011;6175;50.956;11.064;2023-02-28T04:53:12;5.00;;;4.47;;
12224;SDS011;6175;50.956;11.064;2023-02-28T04:55:39;4.00;;;3.70;;
12224;SDS011;6175;50.956;11.064;2023-02-28T04:58:07;5.10;;;4.30;;
12224;SDS011;6175;50.956;11.064;2023-02-28T05:00:34;5.37;;;4.30;;
12224;SDS011;6175;50.956;11.064;2023-02-28T05:03:01;4.93;;;4.20;;
12224;SDS011;6175;50.956;11.064;2023-02-28T05:05:28;5.10;;;4.43;;
12224;SDS011;6175;50.956;11.064;2023-02-28T05:07:55;5.17;;;4.43;;
12224;SDS011;6175;50.956;11.064;2023-02-28T05:10:22;5.30;;;4.80;;
12224;SDS011;6175;50.956;11.064;2023-02-28T05:12:50;4.87;;;4.33;;
12224;SDS011;6175;50.956;11.064;2023-02-28T05:15:18;5.77;;;4.67;;
12224;SDS011;6175;50.956;11.064;2023-02-28T05:17:45;4.97;;;4.47;;
12224;SDS011;6175;50.956;11.064;2023-02-28T05:20:13;4.40;;;4.00;;
12224;SDS011;6175;50.956;11.064;2023-02-28T05:22:40;5.63;;;4.60;;
12224;SDS011;6175;50.956;11.064;2023-02-28T05:25:08;5.50;;;4.33;;
12224;SDS011;6175;50.956;11.064;2023-02-28T05:27:37;4.70;;;4.30;;
12224;SDS011;6175;50.956;11.064;2023-02-28T05:30:05;5.27;;;4.60;;
12224;SDS011;6175;50.956;11.064;2023-02-28T05:32:36;5.03;;;4.53;;
12224;SDS011;6175;50.956;11.064;2023-02-28T05:35:03;5.17;;;4.20;;
12224;SDS011;6175;50.956;11.064;2023-02-28T05:37:31;6.53;;;4.57;;
12224;SDS011;6175;50.956;11.064;2023-02-28T05:39:58;5.90;;;4.53;;
12224;SDS011;6175;50.956;11.064;2023-02-28T05:42:25;5.83;;;4.27;;
12224;SDS011;6175;50.956;11.064;2023-02-28T05:44:53;6.07;;;4.10;;
12224;SDS011;6175;50.956;11.064;2023-02-28T05:47:20;5.70;;;5.10;;
12224;SDS011;6175;50.956;11.064;2023-02-28T05:49:48;5.13;;;4.40;;
12224;SDS011;6175;50.956;11.064;2023-02-28T05:52:16;5.00;;;4.50;;
12224;SDS011;6175;50.956;11.064;2023-02-28T05:54:43;5.87;;;4.23;;
12224;SDS011;6175;50.956;11.064;2023-02-28T05:57:10;5.27;;;4.30;;
12224;SDS011;6175;50.956;11.064;2023-02-28T05:59:37;5.27;;;4.33;;
12224;SDS011;6175;50.956;11.064;2023-02-28T06:02:05;5.23;;;4.43;;
12224;SDS011;6175;50.956;11.064;2023-02-28T06:04:32;5.47;;;4.23;;
12224;SDS011;6175;50.956;11.064;2023-02-28T06:07:01;5.90;;;5.00;;
12224;SDS011;6175;50.956;11.064;2023-02-28T06:09:28;5.20;;;4.00;;
12224;SDS011;6175;50.956;11.064;2023-02-28T06:11:57;5.67;;;4.43;;
12224;SDS011;6175;50.956;11.064;2023-02-28T06:14:24;5.00;;;4.50;;
12224;SDS011;6175;50.956;11.064;2023-02-28T06:16:51;7.20;;;4.80;;
12224;SDS011;6175;50.956;11.064;2023-02-28T06:19:18;5.83;;;4.50;;
12224;SDS011;6175;50.956;11.064;2023-02-28T06:21:48;5.27;;;4.30;;
12224;SDS011;6175;50.956;11.064;2023-02-28T06:24:17;4.90;;;4.40;;
12224;SDS011;6175;50.956;11.064;2023-02-28T06:26:44;6.13;;;4.50;;
12224;SDS011;6175;50.956;11.064;2023-02-28T06:29:11;4.80;;;3.97;;
12224;SDS011;6175;50.956;11.064;2023-02-28T06:31:41;4.50;;;4.10;;
12224;SDS011;6175;50.956;11.064;2023-02-28T06:34:09;5.33;;;4.33;;
12224;SDS011;6175;50.956;11.064;2023-02-28T06:36:36;5.80;;;4.67;;
12224;SDS011;6175;50.956;11.064;2023-02-28T06:39:04;6.90;;;4.60;;
12224;SDS011;6175;50.956;11.064;2023-02-28T06:41:32;6.53;;;4.90;;
12224;SDS011;6175;50.956;11.064;2023-02-28T06:44:03;5.67;;;4.80;;
12224;SDS011;6175;50.956;11.064;2023-02-28T06:46:30;6.67;;;5.03;;
12224;SDS011;6175;50.956;11.064;2023-02-28T06:48:58;6.00;;;4.50;;
12224;SDS011;6175;50.956;11.064;2023-02-28T06:51:25;6.90;;;4.43;;
12224;SDS011;6175;50.956;11.064;2023-02-28T06:53:52;5.60;;;4.33;;
12224;SDS011;6175;50.956;11.064;2023-02-28T06:56:20;6.47;;;4.50;;
12224;SDS011;6175;50.956;11.064;2023-02-28T07:01:49;6.37;;;4.80;;
12224;SDS011;6175;50.956;11.064;2023-02-28T07:04:17;5.20;;;4.30;;
12224;SDS011;6175;50.956;11.064;2023-02-28T07:06:44;6.30;;;4.37;;
12224;SDS011;6175;50.956;11.064;2023-02-28T07:09:11;5.43;;;4.43;;
12224;SDS011;6175;50.956;11.064;2023-02-28T07:11:39;5.87;;;4.77;;
12224;SDS011;6175;50.956;11.064;2023-02-28T07:14:07;5.43;;;3.83;;
12224;SDS011;6175;50.956;11.064;2023-02-28T07:16:36;6.10;;;4.67;;
12224;SDS011;6175;50.956;11.064;2023-02-28T07:19:03;5.30;;;4.40;;
12224;SDS011;6175;50.956;11.064;2023-02-28T07:21:30;5.07;;;3.87;;
12224;SDS011;6175;50.956;11.064;2023-02-28T07:23:57;6.23;;;4.23;;
12224;SDS011;6175;50.956;11.064;2023-02-28T07:26:24;4.40;;;3.80;;
12224;SDS011;6175;50.956;11.064;2023-02-28T07:28:51;4.47;;;4.03;;
12224;SDS011;6175;50.956;11.064;2023-02-28T07:31:19;5.23;;;4.53;;
12224;SDS011;6175;50.956;11.064;2023-02-28T07:33:47;7.10;;;4.60;;
12224;SDS011;6175;50.956;11.064;2023-02-28T07:36:15;6.40;;;4.47;;
12224;SDS011;6175;50.956;11.064;2023-02-28T07:38:44;5.03;;;4.17;;
12224;SDS011;6175;50.956;11.064;2023-02-28T07:41:14;5.03;;;4.47;;
12224;SDS011;6175;50.956;11.064;2023-02-28T07:43:41;6.30;;;4.67;;
12224;SDS011;6175;50.956;11.064;2023-02-28T07:46:10;5.37;;;4.57;;
12224;SDS011;6175;50.956;11.064;2023-02-28T07:48:40;5.03;;;4.43;;
12224;SDS011;6175;50.956;11.064;2023-02-28T07:51:08;5.10;;;4.50;;
12224;SDS011;6175;50.956;11.064;2023-02-28T07:53:35;7.13;;;4.87;;
12224;SDS011;6175;50.956;11.064;2023-02-28T07:56:03;7.40;;;4.57;;
12224;SDS011;6175;50.956;11.064;2023-02-28T07:58:30;4.73;;;4.10;;
12224;SDS011;6175;50.956;11.064;2023-02-28T08:00:57;6.07;;;4.73;;
12224;SDS011;6175;50.956;11.064;2023-02-28T08:03:31;5.53;;;4.17;;
12224;SDS011;6175;50.956;11.064;2023-02-28T08:05:58;6.93;;;4.13;;
12224;SDS011;6175;50.956;11.064;2023-02-28T08:08:28;8.17;;;4.67;;
12224;SDS011;6175;50.956;11.064;2023-02-28T08:10:57;5.13;;;4.63;;
12224;SDS011;6175;50.956;11.064;2023-02-28T08:13:25;8.20;;;5.33;;
12224;SDS011;6175;50.956;11.064;2023-02-28T08:15:53;5.47;;;4.70;;
12224;SDS011;6175;50.956;11.064;2023-02-28T08:18:20;6.00;;;4.53;;
12224;SDS011;6175;50.956;11.064;2023-02-28T08:20:48;4.90;;;4.37;;
12224;SDS011;6175;50.956;11.064;2023-02-28T08:23:15;5.10;;;4.30;;
12224;SDS011;6175;50.956;11.064;2023-02-28T08:25:43;5.60;;;4.63;;
12224;SDS011;6175;50.956;11.064;2023-02-28T08:28:10;6.80;;;4.63;;
12224;SDS011;6175;50.956;11.064;2023-02-28T08:30:37;7.03;;;4.70;;
12224;SDS011;6175;50.956;11.064;2023-02-28T08:33:06;5.37;;;4.27;;
12224;SDS011;6175;50.956;11.064;2023-02-28T08:35:35;4.90;;;4.40;;
12224;SDS011;6175;50.956;11.064;2023-02-28T08:38:02;5.20;;;4.27;;
12224;SDS011;6175;50.956;11.064;2023-02-28T08:40:29;8.17;;;4.97;;
12224;SDS011;6175;50.956;11.064;2023-02-28T08:42:58;5.60;;;4.67;;
12224;SDS011;6175;50.956;11.064;2023-02-28T08:45:25;4.80;;;4.30;;
12224;SDS011;6175;50.956;11.064;2023-02-28T08:47:53;6.20;;;5.03;;
12224;SDS011;6175;50.956;11.064;2023-02-28T08:50:21;5.43;;;4.60;;
12224;SDS011;6175;50.956;11.064;2023-02-28T08:52:48;7.33;;;4.90;;
12224;SDS011;6175;50.956;11.064;2023-02-28T08:55:14;6.20;;;4.77;;
12224;SDS011;6175;50.956;11.064;2023-02-28T08:57:41;5.83;;;4.47;;
12224;SDS011;6175;50.956;11.064;2023-02-28T09:00:11;7.00;;;4.63;;
12224;SDS011;6175;50.956;11.064;2023-02-28T09:02:39;6.40;;;4.80;;
12224;SDS011;6175;50.956;11.064;2023-02-28T09:05:08;9.10;;;4.90;;
12224;SDS011;6175;50.956;11.064;2023-02-28T09:07:36;7.00;;;4.80;;
12224;SDS011;6175;50.956;11.064;2023-02-28T09:10:03;6.17;;;4.80;;
12224;SDS011;6175;50.956;11.064;2023-02-28T09:12:32;6.80;;;4.70;;
12224;SDS011;6175;50.956;11.064;2023-02-28T09:15:01;7.43;;;4.93;;
12224;SDS011;6175;50.956;11.064;2023-02-28T09:17:29;6.40;;;5.00;;
12224;SDS011;6175;50.956;11.064;2023-02-28T09:19:56;6.65;;;4.72;;
12224;SDS011;6175;50.956;11.064;2023-02-28T09:22:23;5.35;;;4.43;;
12224;SDS011;6175;50.956;11.064;2023-02-28T09:24:51;5.35;;;4.15;;
12224;SDS011;6175;50.956;11.064;2023-02-28T09:27:18;4.43;;;4.00;;
12224;SDS011;6175;50.956;11.064;2023-02-28T09:29:45;5.70;;;4.60;;
12224;SDS011;6175;50.956;11.064;2023-02-28T09:32:12;7.18;;;4.68;;
12224;SDS011;6175;50.956;11.064;2023-02-28T09:34:41;5.30;;;4.45;;
12224;SDS011;6175;50.956;11.064;2023-02-28T09:37:07;5.10;;;4.03;;
12224;SDS011;6175;50.956;11.064;2023-02-28T09:39:35;5.83;;;4.20;;
12224;SDS011;6175;50.956;11.064;2023-02-28T09:42:02;5.80;;;4.65;;
12224;SDS011;6175;50.956;11.064;2023-02-28T09:44:33;5.40;;;4.67;;
12224;SDS011;6175;50.956;11.064;2023-02-28T09:47:05;4.57;;;3.87;;
12224;SDS011;6175;50.956;11.064;2023-02-28T09:49:41;5.40;;;4.03;;
12224;SDS011;6175;50.956;11.064;2023-02-28T09:52:12;5.57;;;4.20;;
12224;SDS011;6175;50.956;11.064;2023-02-28T09:54:44;4.47;;;3.80;;
12224;SDS011;6175;50.956;11.064;2023-02-28T09:57:14;6.18;;;4.45;;
12224;SDS011;6175;50.956;11.064;2023-02-28T09:59:51;5.80;;;4.28;;
12224;SDS011;6175;50.956;11.064;2023-02-28T10:02:37;6.55;;;3.95;;
12224;SDS011;6175;50.956;11.064;2023-02-28T10:05:17;4.38;;;3.95;;
12224;SDS011;6175;50.956;11.064;2023-02-28T10:07:50;6.40;;;3.85;;
12224;SDS011;6175;50.956;11.064;2023-02-28T10:10:27;4.93;;;3.92;;
12224;SDS011;6175;50.956;11.064;2023-02-28T10:12:59;5.60;;;4.00;;
12224;SDS011;6175;50.956;11.064;2023-02-28T10:15:30;5.88;;;4.10;;
12224;SDS011;6175;50.956;11.064;2023-02-28T10:17:58;5.72;;;4.13;;
12224;SDS011;6175;50.956;11.064;2023-02-28T10:20:30;4.97;;;4.05;;
12224;SDS011;6175;50.956;11.064;2023-02-28T10:23:02;4.95;;;4.22;;
12224;SDS011;6175;50.956;11.064;2023-02-28T10:25:36;3.72;;;3.35;;
12224;SDS011;6175;50.956;11.064;2023-02-28T10:28:08;5.18;;;3.95;;
12224;SDS011;6175;50.956;11.064;2023-02-28T10:30:37;4.72;;;3.88;;
12224;SDS011;6175;50.956;11.064;2023-02-28T10:33:08;4.85;;;4.13;;
12224;SDS011;6175;50.956;11.064;2023-02-28T10:35:46;5.75;;;4.05;;
12224;SDS011;6175;50.956;11.064;2023-02-28T10:38:17;5.10;;;4.20;;
12224;SDS011;6175;50.956;11.064;2023-02-28T10:40:47;3.85;;;3.50;;
12224;SDS011;6175;50.956;11.064;2023-02-28T10:43:21;6.90;;;4.32;;
12224;SDS011;6175;50.956;11.064;2023-02-28T10:45:53;4.38;;;3.88;;
12224;SDS011;6175;50.956;11.064;2023-02-28T10:48:36;4.05;;;3.65;;
12224;SDS011;6175;50.956;11.064;2023-02-28T10:51:07;4.27;;;3.87;;
12224;SDS011;6175;50.956;11.064;2023-02-28T10:53:46;5.63;;;4.20;;
12224;SDS011;6175;50.956;11.064;2023-02-28T10:56:16;5.10;;;3.83;;
12224;SDS011;6175;50.956;11.064;2023-02-28T10:58:47;4.75;;;4.22;;
12224;SDS011;6175;50.956;11.064;2023-02-28T11:01:17;4.55;;;4.15;;
12224;SDS011;6175;50.956;11.064;2023-02-28T11:03:45;7.22;;;4.40;;
12224;SDS011;6175;50.956;11.064;2023-02-28T11:06:15;5.72;;;4.22;;
12224;SDS011;6175;50.956;11.064;2023-02-28T11:08:45;5.38;;;4.68;;
12224;SDS011;6175;50.956;11.064;2023-02-28T11:11:14;6.10;;;4.70;;
12224;SDS011;6175;50.956;11.064;2023-02-28T11:13:43;4.18;;;3.78;;
12224;SDS011;6175;50.956;11.064;2023-02-28T11:16:13;4.50;;;3.75;;
12224;SDS011;6175;50.956;11.064;2023-02-28T11:18:43;5.18;;;4.30;;
12224;SDS011;6175;50.956;11.064;2023-02-28T11:21:20;5.15;;;4.38;;
12224;SDS011;6175;50.956;11.064;2023-02-28T11:23:50;5.57;;;4.65;;
12224;SDS011;6175;50.956;11.064;2023-02-28T11:29:12;5.15;;;4.20;;
12224;SDS011;6175;50.956;11.064;2023-02-28T11:31:44;6.28;;;4.30;;
12224;SDS011;6175;50.956;11.064;2023-02-28T11:34:23;4.95;;;4.45;;
12224;SDS011;6175;50.956;11.064;2023-02-28T11:36:54;5.05;;;4.45;;
12224;SDS011;6175;50.956;11.064;2023-02-28T11:39:24;5.22;;;4.60;;
12224;SDS011;6175;50.956;11.064;2023-02-28T11:41:55;5.85;;;4.18;;
12224;SDS011;6175;50.956;11.064;2023-02-28T11:44:43;7.13;;;5.22;;
12224;SDS011;6175;50.956;11.064;2023-02-28T11:47:26;5.30;;;4.70;;
12224;SDS011;6175;50.956;11.064;2023-02-28T11:50:04;5.05;;;4.50;;
12224;SDS011;6175;50.956;11.064;2023-02-28T11:52:45;6.00;;;4.88;;
12224;SDS011;6175;50.956;11.064;2023-02-28T11:55:17;6.55;;;4.97;;
12224;SDS011;6175;50.956;11.064;2023-02-28T11:57:56;5.72;;;4.78;;
12224;SDS011;6175;50.956;11.064;2023-02-28T12:00:45;5.20;;;4.70;;
12224;SDS011;6175;50.956;11.064;2023-02-28T12:03:26;4.97;;;4.47;;
12224;SDS011;6175;50.956;11.064;2023-02-28T12:06:05;6.63;;;4.68;;
12224;SDS011;6175;50.956;11.064;2023-02-28T12:08:44;5.85;;;4.85;;
12224;SDS011;6175;50.956;11.064;2023-02-28T12:11:22;5.57;;;4.45;;
12224;SDS011;6175;50.956;11.064;2023-02-28T12:14:00;6.20;;;5.18;;
12224;SDS011;6175;50.956;11.064;2023-02-28T12:16:43;6.22;;;5.00;;
12224;SDS011;6175;50.956;11.064;2023-02-28T12:19:21;7.13;;;5.03;;
12224;SDS011;6175;50.956;11.064;2023-02-28T12:21:58;6.35;;;5.45;;
12224;SDS011;6175;50.956;11.064;2023-02-28T12:27:46;6.00;;;4.72;;
12224;SDS011;6175;50.956;11.064;2023-02-28T12:30:16;5.60;;;5.05;;
12224;SDS011;6175;50.956;11.064;2023-02-28T12:32:48;5.82;;;5.20;;
12224;SDS011;6175;50.956;11.064;2023-02-28T12:35:19;8.88;;;5.85;;
12224;SDS011;6175;50.956;11.064;2023-02-28T12:37:52;6.68;;;5.88;;
12224;SDS011;6175;50.956;11.064;2023-02-28T12:40:24;6.20;;;5.03;;
12224;SDS011;6175;50.956;11.064;2023-02-28T12:42:56;8.55;;;5.13;;
12224;SDS011;6175;50.956;11.064;2023-02-28T12:45:31;5.60;;;4.90;;
12224;SDS011;6175;50.956;11.064;2023-02-28T12:48:06;6.10;;;5.18;;
12224;SDS011;6175;50.956;11.064;2023-02-28T12:50:36;6.40;;;5.45;;
12224;SDS011;6175;50.956;11.064;2023-02-28T12:53:06;6.65;;;5.60;;
12224;SDS011;6175;50.956;11.064;2023-02-28T12:55:38;6.95;;;5.85;;
12224;SDS011;6175;50.956;11.064;2023-02-28T12:58:14;7.50;;;5.68;;
12224;SDS011;6175;50.956;11.064;2023-02-28T13:00:50;6.85;;;5.75;;
12224;SDS011;6175;50.956;11.064;2023-02-28T13:06:33;7.07;;;6.22;;
12224;SDS011;6175;50.956;11.064;2023-02-28T13:09:11;7.07;;;5.45;;
12224;SDS011;6175;50.956;11.064;2023-02-28T13:11:41;6.70;;;5.68;;
12224;SDS011;6175;50.956;11.064;2023-02-28T13:14:28;6.57;;;5.85;;
12224;SDS011;6175;50.956;11.064;2023-02-28T13:16:57;7.70;;;6.25;;
12224;SDS011;6175;50.956;11.064;2023-02-28T13:19:36;6.30;;;5.68;;
12224;SDS011;6175;50.956;11.064;2023-02-28T13:22:10;7.05;;;5.68;;
12224;SDS011;6175;50.956;11.064;2023-02-28T13:24:46;7.22;;;5.78;;
12224;SDS011;6175;50.956;11.064;2023-02-28T13:27:22;8.27;;;5.78;;
12224;SDS011;6175;50.956;11.064;2023-02-28T13:29:59;6.72;;;5.93;;
12224;SDS011;6175;50.956;11.064;2023-02-28T13:35:14;8.27;;;6.47;;
12224;SDS011;6175;50.956;11.064;2023-02-28T13:40:48;6.20;;;5.63;;
12224;SDS011;6175;50.956;11.064;2023-02-28T13:43:16;7.13;;;6.38;;
12224;SDS011;6175;50.956;11.064;2023-02-28T13:46:06;7.05;;;6.25;;
12224;SDS011;6175;50.956;11.064;2023-02-28T13:48:36;7.85;;;6.78;;
12224;SDS011;6175;50.956;11.064;2023-02-28T13:53:56;8.13;;;6.75;;
12224;SDS011;6175;50.956;11.064;2023-02-28T13:56:33;7.10;;;6.38;;
12224;SDS011;6175;50.956;11.064;2023-02-28T13:59:13;7.57;;;6.78;;
12224;SDS011;6175;50.956;11.064;2023-02-28T14:01:57;7.20;;;6.50;;
12224;SDS011;6175;50.956;11.064;2023-02-28T14:04:47;7.97;;;6.72;;
12224;SDS011;6175;50.956;11.064;2023-02-28T14:07:21;8.50;;;7.00;;
12224;SDS011;6175;50.956;11.064;2023-02-28T14:09:59;9.82;;;7.78;;
12224;SDS011;6175;50.956;11.064;2023-02-28T14:15:36;7.75;;;6.30;;
12224;SDS011;6175;50.956;11.064;2023-02-28T14:18:16;7.60;;;6.88;;
12224;SDS011;6175;50.956;11.064;2023-02-28T14:20:47;7.53;;;6.57;;
12224;SDS011;6175;50.956;11.064;2023-02-28T14:23:17;7.63;;;6.82;;
12224;SDS011;6175;50.956;11.064;2023-02-28T14:25:53;9.65;;;7.47;;
12224;SDS011;6175;50.956;11.064;2023-02-28T14:28:40;8.43;;;6.93;;
12224;SDS011;6175;50.956;11.064;2023-02-28T14:31:15;9.88;;;7.50;;
12224;SDS011;6175;50.956;11.064;2023-02-28T14:33:54;8.95;;;7.72;;
12224;SDS011;6175;50.956;11.064;2023-02-28T14:36:31;7.88;;;7.07;;
12224;SDS011;6175;50.956;11.064;2023-02-28T14:39:03;9.85;;;7.72;;
12224;SDS011;6175;50.956;11.064;2023-02-28T14:41:32;8.50;;;7.40;;
12224;SDS011;6175;50.956;11.064;2023-02-28T14:44:02;7.70;;;6.85;;
12224;SDS011;6175;50.956;11.064;2023-02-28T14:46:39;10.05;;;7.43;;
12224;SDS011;6175;50.956;11.064;2023-02-28T14:49:12;9.68;;;7.25;;
12224;SDS011;6175;50.956;11.064;2023-02-28T14:51:42;9.02;;;7.68;;
12224;SDS011;6175;50.956;11.064;2023-02-28T14:54:12;9.85;;;7.57;;
12224;SDS011;6175;50.956;11.064;2023-02-28T14:56:41;8.75;;;7.53;;
12224;SDS011;6175;50.956;11.064;2023-02-28T14:59:23;9.57;;;7.40;;
12224;SDS011;6175;50.956;11.064;2023-02-28T15:01:51;8.10;;;7.00;;
12224;SDS011;6175;50.956;11.064;2023-02-28T15:04:22;10.13;;;7.28;;
12224;SDS011;6175;50.956;11.064;2023-02-28T15:07:06;8.73;;;7.32;;
12224;SDS011;6175;50.956;11.064;2023-02-28T15:09:34;9.82;;;7.47;;
12224;SDS011;6175;50.956;11.064;2023-02-28T15:12:01;9.77;;;6.68;;
12224;SDS011;6175;50.956;11.064;2023-02-28T15:14:28;8.48;;;7.07;;
12224;SDS011;6175;50.956;11.064;2023-02-28T15:16:56;8.07;;;6.75;;
12224;SDS011;6175;50.956;11.064;2023-02-28T15:19:29;9.43;;;7.18;;
12224;SDS011;6175;50.956;11.064;2023-02-28T15:21:59;8.98;;;6.70;;
12224;SDS011;6175;50.956;11.064;2023-02-28T15:24:30;8.77;;;7.28;;
12224;SDS011;6175;50.956;11.064;2023-02-28T15:27:02;7.38;;;6.35;;
12224;SDS011;6175;50.956;11.064;2023-02-28T15:29:32;9.02;;;6.93;;
12224;SDS011;6175;50.956;11.064;2023-02-28T15:32:07;12.07;;;8.10;;
12224;SDS011;6175;50.956;11.064;2023-02-28T15:34:46;11.43;;;7.07;;
12224;SDS011;6175;50.956;11.064;2023-02-28T15:37:30;8.38;;;7.25;;
12224;SDS011;6175;50.956;11.064;2023-02-28T15:40:12;9.10;;;7.00;;
12224;SDS011;6175;50.956;11.064;2023-02-28T15:42:41;7.85;;;6.80;;